OOLO2: Oologah Lake

Data processed at Sat Mar 10 2018 23:57


All information presented herein is the property of the government of the United States of America and may be revised or deleted at any time without prior notice.
Dissemination of this information without the expressed written consent of the Public Affairs Office, Tulsa District U.S. Army Corps of Engineers is strictly prohibited.
These data are gathered electronically and, as presented, have not undergone any form of quality control. These data are not guaranteed to be valid or correct.
Go to home page.
Go to station list.

Upstream stations:

Downstream station:
Previous Day
Next Day
Current Day
    
SHEF ID:       OOLO2     Oologah Lake
STATION TYPE:  RESERVOIR
Normal Pool:  Bottom =   592.00, Top =   638.00

               PRECIP  RIV-FLOW ELEVATION   STORAGE   TW-ELEV    INFLOW   RELEASE  AIR-TEMP  WIND-DIRWIND-SPEED REL-HUMID SOLAR-RAD   VOLTAGE  BAT-LOAD
                   in       cfs        ft     ac-ft        ft       cfs       cfs         F       deg       mph         %      W/m2      volt      volt
              Ccp-Rev   Ccp-Rev   Ccp-Rev   Ccp-Rev   Ccp-Rev  Regi-Rev  Regi-Rev   Ccp-Rev   Ccp-Rev   Ccp-Rev   Ccp-Rev   Ccp-Rev   Ccp-Rev   Ccp-Rev
(US/Central)
03/08 00:00      0.00      5182    638.60    474811     16.21         0      4464     39.78    357.00      0.50     53.63      0.00     13.72     12.57
03/08 01:00      0.00      5191    638.58    474223     16.22         0         0     40.82    341.40      2.40     49.30      0.00     13.73     12.57
03/08 02:00      0.00      5182    638.55    473340     16.21         0      4464     39.06    299.90      2.90     39.24      0.00     13.72     12.57
03/08 03:00      0.00      5182    638.55    473340     16.21         0      4463     36.32    313.80      3.00     45.45      0.00     13.72     12.57
03/08 04:00      0.00      5182    638.57    473929     16.21         0      4463     36.54    327.10      5.70     41.15      0.00     13.72     12.57
03/08 05:00      0.00      5182    638.54    473046     16.21         0      4463     34.97    328.90      7.10     44.54      0.00     13.73     12.57
03/08 06:00      0.00      5182    638.52    472458     16.21         0      4462     34.79    329.90      4.50     51.13      0.00     13.71     12.49
03/08 07:00      0.00      5182    638.54    473046     16.21         0      4462     35.69    321.40      5.40     60.18      0.40     13.71     12.49
03/08 08:00      0.00      5182    638.49    471575     16.21         0      4462     35.47    344.10      8.60     58.51    117.10     13.71     12.49
03/08 09:00      0.00      5173    638.46    470693     16.20         0         0     35.60    345.10      7.10     58.03    334.20     13.71     12.57
03/08 10:00      0.00      5173    638.48    471281     16.20         0      4461     37.49    341.80      4.70     54.14    540.20     13.72     12.57
03/08 11:00      0.00      ----    638.44    470104      ----         0      4460     39.94    315.80      2.10     49.78    703.80     13.72     12.57
03/08 12:00      0.00      5182    638.41    469222     16.21         0      4459     43.16    323.20      2.30     43.10    781.90     13.71     12.49
03/08 13:00      0.00      5182    638.43    469810     16.21         0         0     48.58    282.30      0.50     35.51    801.40     13.72     11.06
03/08 14:00      0.00      5182    638.41    469222     16.21         0      4459     49.84    310.20      1.60     36.12    676.90     13.72     12.49
03/08 15:00      0.00      5182    638.38    468339     16.21         0      4458     51.94    333.90      1.70     32.67    697.50     13.72     12.57
03/08 16:00      0.00      5182    638.38    468339     16.21         0      4458     54.72    107.50      2.60     28.64    485.30     13.72     12.49
03/08 17:00      0.00      5182    638.37    468045     16.21         0         0     55.99    124.90      3.80     26.62    300.10     13.72     12.49
03/08 18:00      0.00      5182    638.34    467162     16.21        21      4457     56.10    102.20      3.00     27.61    122.30     13.72     12.49
03/08 19:00      0.00      5173    638.32    466574     16.20        42      4452     54.34     78.10      2.90     29.82      3.70     13.72     12.49
03/08 20:00      0.00      5173    638.31    466280     16.20        42      4452     52.45     95.00      3.70     32.33      0.00     13.72     12.49
03/08 21:00      0.00      5182    638.31    466280     16.21        46      4456     51.40    106.00      4.10     34.10      0.00     13.72     12.49
03/08 22:00      0.00      5173    638.25    464515     16.20        49      4455     51.35    130.80      4.60     34.25      0.00     13.72     12.49
03/08 23:00      0.00      5173    638.22    463632     16.20        28      4453     49.95    135.10      5.00     36.95      0.00     13.72     12.49